createdAt,value
2018-03-25T00:39:46.184Z,21.53
2018-03-25T00:42:12.922Z,24.07
2018-03-25T00:44:39.664Z,24.50
2018-03-25T00:47:06.403Z,24.70
2018-03-25T00:49:33.134Z,24.33
2018-03-25T00:51:59.875Z,22.30
2018-03-25T00:54:26.617Z,23.87
2018-03-25T00:56:53.370Z,22.50
2018-03-25T00:59:20.098Z,21.60
2018-03-25T01:01:46.829Z,22.97
2018-03-25T01:04:13.577Z,23.30
2018-03-25T01:06:40.300Z,24.23
2018-03-25T01:09:07.071Z,22.47
2018-03-25T01:11:33.811Z,23.07
2018-03-25T01:14:00.569Z,23.33
2018-03-25T01:16:27.290Z,22.70
2018-03-25T01:18:54.027Z,21.73
2018-03-25T01:21:20.762Z,23.20
2018-03-25T01:23:47.505Z,22.63
2018-03-25T01:26:14.270Z,22.33
2018-03-25T01:28:40.998Z,23.77
2018-03-25T01:31:07.743Z,22.67
2018-03-25T01:33:34.470Z,23.90
2018-03-25T01:36:01.209Z,21.37
2018-03-25T01:38:27.961Z,21.93
2018-03-25T01:40:54.680Z,22.60
2018-03-25T01:43:21.431Z,20.87
2018-03-25T01:45:48.186Z,22.73
2018-03-25T01:48:14.923Z,20.37
2018-03-25T01:50:41.650Z,21.60
2018-03-25T01:53:08.404Z,20.10
2018-03-25T01:55:35.136Z,20.97
2018-03-25T01:58:01.886Z,21.43
2018-03-25T02:00:28.626Z,22.60
2018-03-25T02:02:55.388Z,20.80
2018-03-25T02:05:22.109Z,20.80
2018-03-25T02:07:48.852Z,21.13
2018-03-25T02:10:15.579Z,22.00
2018-03-25T02:12:42.300Z,20.90
2018-03-25T02:15:09.027Z,21.13
2018-03-25T02:17:35.755Z,20.57
2018-03-25T02:20:02.503Z,21.37
2018-03-25T02:22:29.246Z,20.90
2018-03-25T02:24:55.985Z,21.10
2018-03-25T02:27:22.729Z,20.90
2018-03-25T02:29:49.474Z,20.33
2018-03-25T02:32:16.208Z,21.50
2018-03-25T02:34:42.953Z,20.17
2018-03-25T02:37:09.769Z,20.60
2018-03-25T02:39:36.493Z,19.93
2018-03-25T02:42:03.277Z,22.20
2018-03-25T02:44:30.028Z,20.87
2018-03-25T02:46:56.775Z,21.47
2018-03-25T02:49:23.516Z,21.20
2018-03-25T02:51:50.245Z,21.50
2018-03-25T02:54:16.995Z,20.27
2018-03-25T02:56:43.733Z,21.43
2018-03-25T02:59:10.475Z,20.80
2018-03-25T03:01:37.206Z,21.60
2018-03-25T03:04:03.950Z,20.53
2018-03-25T03:06:30.695Z,21.80
2018-03-25T03:08:57.436Z,21.40
2018-03-25T03:11:24.165Z,21.97
2018-03-25T03:13:50.909Z,21.00
2018-03-25T03:16:17.648Z,21.73
2018-03-25T03:18:44.410Z,22.97
2018-03-25T03:21:11.149Z,20.83
2018-03-25T03:23:37.890Z,21.10
2018-03-25T03:26:04.628Z,21.50
2018-03-25T03:28:31.365Z,22.13
2018-03-25T03:30:58.089Z,22.00
2018-03-25T03:33:24.842Z,21.53
2018-03-25T03:35:51.576Z,24.27
2018-03-25T03:38:18.378Z,22.80
2018-03-25T03:40:45.152Z,21.60
2018-03-25T03:43:11.878Z,20.83
2018-03-25T03:45:38.595Z,21.87
2018-03-25T03:48:05.346Z,22.00
2018-03-25T03:50:32.087Z,22.10
2018-03-25T03:52:58.807Z,19.83
2018-03-25T03:55:25.567Z,22.47
2018-03-25T03:57:52.304Z,21.73
2018-03-25T04:00:19.049Z,22.67
2018-03-25T04:02:45.774Z,23.37
2018-03-25T04:05:12.528Z,22.87
2018-03-25T04:07:39.262Z,24.20
2018-03-25T04:10:06.018Z,23.90
2018-03-25T04:12:32.761Z,23.90
2018-03-25T04:14:59.491Z,22.07
2018-03-25T04:17:26.217Z,22.80
2018-03-25T04:19:52.938Z,22.93
2018-03-25T04:22:19.670Z,22.37
2018-03-25T04:24:46.398Z,23.43
2018-03-25T04:27:13.115Z,24.87
2018-03-25T04:29:39.871Z,22.10
2018-03-25T04:32:06.607Z,23.13
2018-03-25T04:34:33.357Z,23.57
2018-03-25T04:37:00.121Z,24.70
2018-03-25T04:39:26.853Z,23.97
2018-03-25T04:41:53.623Z,22.63
2018-03-25T04:44:20.357Z,22.93
2018-03-25T04:46:47.106Z,24.90
2018-03-25T04:49:13.885Z,23.60
2018-03-25T04:51:41.498Z,24.60
2018-03-25T04:54:08.252Z,25.53
2018-03-25T04:56:35.038Z,23.70
2018-03-25T04:59:01.791Z,22.50
2018-03-25T05:01:28.518Z,24.17
2018-03-25T05:03:55.261Z,23.03
2018-03-25T05:06:21.992Z,23.40
2018-03-25T05:08:48.745Z,26.40
2018-03-25T05:11:15.484Z,23.73
2018-03-25T05:13:42.246Z,25.10
2018-03-25T05:16:09.058Z,26.43
2018-03-25T05:18:35.798Z,25.13
2018-03-25T05:21:02.517Z,26.57
2018-03-25T05:23:29.321Z,25.53
2018-03-25T05:25:56.057Z,27.67
2018-03-25T05:28:22.781Z,25.37
2018-03-25T05:30:49.505Z,26.27
2018-03-25T05:33:16.242Z,26.87
2018-03-25T05:35:42.971Z,26.73
2018-03-25T05:38:09.720Z,26.90
2018-03-25T05:40:36.460Z,25.90
2018-03-25T05:43:03.206Z,27.10
2018-03-25T05:45:29.929Z,26.90
2018-03-25T05:47:56.697Z,26.43
2018-03-25T05:50:23.411Z,25.43
2018-03-25T05:52:50.129Z,27.03
2018-03-25T05:55:16.867Z,26.93
2018-03-25T05:57:43.592Z,27.83
2018-03-25T06:00:10.351Z,27.13
2018-03-25T06:02:37.079Z,27.70
2018-03-25T06:05:03.826Z,28.03
2018-03-25T06:07:30.555Z,28.90
2018-03-25T06:09:57.272Z,26.60
2018-03-25T06:12:24.006Z,25.90
2018-03-25T06:14:50.748Z,27.60
2018-03-25T06:17:17.485Z,28.43
2018-03-25T06:19:44.210Z,28.00
2018-03-25T06:22:10.978Z,28.00
2018-03-25T06:24:37.720Z,29.17
2018-03-25T06:27:04.459Z,29.20
2018-03-25T06:29:31.964Z,26.43
2018-03-25T06:31:58.724Z,30.03
2018-03-25T06:34:25.537Z,28.23
2018-03-25T06:36:52.275Z,28.57
2018-03-25T06:39:19.027Z,30.43
2018-03-25T06:41:45.768Z,28.10
2018-03-25T06:44:12.517Z,27.70
2018-03-25T06:46:39.269Z,29.37
2018-03-25T06:49:06.010Z,26.93
2018-03-25T06:51:32.741Z,27.50
2018-03-25T06:53:59.470Z,30.20
2018-03-25T06:56:26.206Z,28.67
2018-03-25T06:58:52.939Z,31.90
2018-03-25T07:01:19.679Z,30.10
2018-03-25T07:03:46.408Z,30.27
2018-03-25T07:06:13.147Z,29.77
2018-03-25T07:08:39.885Z,30.10
2018-03-25T07:11:06.653Z,32.90
2018-03-25T07:13:33.411Z,31.17
2018-03-25T07:16:00.152Z,32.37
2018-03-25T07:18:26.922Z,32.97
2018-03-25T07:20:53.695Z,32.23
2018-03-25T07:23:20.439Z,34.20
2018-03-25T07:25:47.183Z,31.50
2018-03-25T07:28:13.912Z,35.57
2018-03-25T07:30:40.642Z,31.53
2018-03-25T07:33:07.397Z,35.30
2018-03-25T07:35:34.138Z,34.80
2018-03-25T07:38:00.898Z,37.30
2018-03-25T07:40:27.679Z,32.60
2018-03-25T07:42:54.407Z,34.50
2018-03-25T07:45:21.156Z,33.80
2018-03-25T07:47:47.922Z,34.17
2018-03-25T07:50:14.660Z,32.70
2018-03-25T07:52:41.424Z,33.83
2018-03-25T07:55:08.156Z,34.27
2018-03-25T07:57:34.906Z,35.57
2018-03-25T08:00:01.651Z,34.33
2018-03-25T08:02:28.390Z,33.40
2018-03-25T08:04:55.215Z,36.60
2018-03-25T08:07:21.954Z,37.90
2018-03-25T08:09:48.707Z,35.30
2018-03-25T08:12:15.475Z,36.40
2018-03-25T08:14:42.239Z,35.77
2018-03-25T08:17:08.985Z,35.37
2018-03-25T08:19:35.712Z,34.40
2018-03-25T08:22:02.434Z,36.07
2018-03-25T08:24:29.165Z,34.87
2018-03-25T08:26:55.948Z,35.90
2018-03-25T08:29:22.687Z,35.43
2018-03-25T08:31:49.438Z,36.20
2018-03-25T08:34:16.222Z,36.97
2018-03-25T08:36:42.970Z,37.07
2018-03-25T08:39:09.710Z,36.23
2018-03-25T08:41:36.450Z,35.93
2018-03-25T08:44:03.225Z,35.27
2018-03-25T08:46:29.961Z,35.97
2018-03-25T08:48:56.701Z,37.63
2018-03-25T08:51:23.428Z,36.83
2018-03-25T08:53:50.254Z,38.80
2018-03-25T08:56:16.983Z,38.43
2018-03-25T08:58:43.710Z,40.20
2018-03-25T09:01:10.455Z,39.03
2018-03-25T09:03:37.195Z,39.87
2018-03-25T09:06:03.963Z,36.10
2018-03-25T09:08:30.726Z,34.90
2018-03-25T09:10:57.464Z,40.00
2018-03-25T09:13:24.276Z,39.50
2018-03-25T09:15:51.007Z,39.30
2018-03-25T09:18:17.766Z,39.00
2018-03-25T09:20:44.538Z,38.90
2018-03-25T09:23:11.274Z,38.40
2018-03-25T09:25:38.024Z,39.17
2018-03-25T09:28:04.780Z,39.83
2018-03-25T09:30:31.525Z,38.50
2018-03-25T09:32:58.440Z,39.07
2018-03-25T09:35:25.213Z,39.87
2018-03-25T09:37:52.414Z,42.47
2018-03-25T09:40:19.207Z,42.97
2018-03-25T09:42:45.949Z,42.97
2018-03-25T09:45:12.699Z,44.30
2018-03-25T09:47:39.507Z,43.63
2018-03-25T09:50:06.283Z,42.37
2018-03-25T09:52:33.029Z,42.87
2018-03-25T09:54:59.783Z,43.13
2018-03-25T09:57:26.509Z,46.70
2018-03-25T09:59:53.294Z,42.67
2018-03-25T10:02:26.197Z,45.43
2018-03-25T10:04:53.440Z,44.67
2018-03-25T10:07:20.353Z,43.40
2018-03-25T10:09:47.236Z,47.00
2018-03-25T10:12:14.141Z,42.63
2018-03-25T10:14:40.978Z,43.10
2018-03-25T10:17:07.865Z,46.53
2018-03-25T10:19:34.718Z,43.90
2018-03-25T10:22:01.581Z,45.17
2018-03-25T10:24:28.580Z,45.77
2018-03-25T10:26:55.499Z,43.73
2018-03-25T10:29:22.294Z,44.03
2018-03-25T10:31:49.215Z,45.63
2018-03-25T10:34:16.303Z,45.30
2018-03-25T10:36:43.164Z,44.07
2018-03-25T10:39:10.195Z,45.70
2018-03-25T10:41:37.175Z,42.13
2018-03-25T10:44:04.119Z,43.27
2018-03-25T10:46:30.970Z,44.70
2018-03-25T10:48:58.017Z,46.80
2018-03-25T10:51:24.999Z,44.80
2018-03-25T10:53:51.940Z,48.50
2018-03-25T10:56:18.730Z,45.00
2018-03-25T10:58:45.749Z,45.70
2018-03-25T11:01:12.611Z,44.30
2018-03-25T11:03:39.489Z,44.07
2018-03-25T11:06:06.524Z,43.73
2018-03-25T11:08:33.363Z,44.33
2018-03-25T11:11:00.193Z,43.60
2018-03-25T11:13:27.148Z,40.83
2018-03-25T11:15:54.029Z,43.10
2018-03-25T11:18:20.939Z,40.83
2018-03-25T11:20:48.008Z,40.57
2018-03-25T11:23:15.092Z,43.23
2018-03-25T11:25:41.966Z,41.80
2018-03-25T11:28:08.722Z,43.57
2018-03-25T11:30:35.866Z,40.90
2018-03-25T11:33:02.922Z,41.50
2018-03-25T11:35:29.923Z,39.43
2018-03-25T11:37:57.097Z,41.93
2018-03-25T11:40:24.084Z,38.63
2018-03-25T11:42:50.897Z,40.63
2018-03-25T11:45:17.797Z,42.13
2018-03-25T11:47:44.770Z,37.90
2018-03-25T11:50:11.799Z,39.10
2018-03-25T11:52:38.688Z,39.43
2018-03-25T11:55:06.136Z,37.83
2018-03-25T11:57:33.077Z,36.20
2018-03-25T12:00:00.057Z,37.90
2018-03-25T12:02:26.963Z,37.47
2018-03-25T12:04:53.936Z,39.33
2018-03-25T12:07:20.824Z,40.17
2018-03-25T12:09:47.658Z,39.50
2018-03-25T12:12:14.647Z,40.07
2018-03-25T12:14:41.490Z,39.20
2018-03-25T12:17:08.367Z,37.87
2018-03-25T12:19:35.350Z,38.93
2018-03-25T12:22:02.464Z,38.80
2018-03-25T12:24:29.642Z,36.30
2018-03-25T12:26:57.684Z,37.70
2018-03-25T12:29:24.853Z,32.93
2018-03-25T12:31:51.811Z,35.70
2018-03-25T12:34:18.811Z,37.43
2018-03-25T12:36:45.945Z,35.00
2018-03-25T12:39:13.018Z,34.10
2018-03-25T12:41:39.958Z,36.57
2018-03-25T12:44:07.170Z,33.17
2018-03-25T12:46:34.199Z,33.17
2018-03-25T12:49:01.446Z,32.93
2018-03-25T12:51:28.486Z,30.00
2018-03-25T12:53:55.645Z,30.83
2018-03-25T12:56:22.659Z,31.80
2018-03-25T12:58:49.580Z,33.60
2018-03-25T13:01:16.661Z,32.70
2018-03-25T13:03:43.501Z,34.70
2018-03-25T13:06:10.318Z,33.10
2018-03-25T13:08:37.154Z,28.40
2018-03-25T13:11:04.181Z,29.27
2018-03-25T13:13:31.555Z,28.47
2018-03-25T13:15:58.567Z,31.50
2018-03-25T13:18:25.414Z,28.60
2018-03-25T13:20:52.379Z,31.00
2018-03-25T13:23:19.347Z,31.97
2018-03-25T13:25:46.195Z,32.90
2018-03-25T13:28:13.121Z,30.20
2018-03-25T13:30:39.975Z,33.83
2018-03-25T13:33:07.598Z,31.80
2018-03-25T13:35:34.369Z,32.03
2018-03-25T13:38:01.992Z,33.03
2018-03-25T13:40:28.938Z,33.43
2018-03-25T13:42:55.856Z,31.17
2018-03-25T13:45:22.639Z,31.40
2018-03-25T13:47:49.433Z,32.00
2018-03-25T13:50:16.526Z,31.60
2018-03-25T13:52:43.472Z,31.73
2018-03-25T13:55:10.408Z,29.77
2018-03-25T13:57:37.181Z,28.40
2018-03-25T14:00:04.144Z,29.70
2018-03-25T14:02:31.373Z,27.23
2018-03-25T14:04:58.236Z,28.07
2018-03-25T14:07:25.369Z,27.23
2018-03-25T14:09:52.142Z,26.73
2018-03-25T14:12:19.131Z,28.57
2018-03-25T14:14:46.085Z,28.00
2018-03-25T14:17:13.248Z,28.70
2018-03-25T14:19:40.374Z,28.57
2018-03-25T14:22:07.180Z,30.20
2018-03-25T14:24:34.070Z,28.30
2018-03-25T14:27:00.866Z,28.00
2018-03-25T14:29:27.760Z,28.57
2018-03-25T14:31:54.542Z,28.63
2018-03-25T14:34:21.331Z,29.53
2018-03-25T14:36:48.286Z,30.30
2018-03-25T14:39:15.039Z,30.00
2018-03-25T14:41:41.903Z,30.07
2018-03-25T14:44:08.750Z,30.77
2018-03-25T14:46:35.779Z,31.70
2018-03-25T14:49:02.539Z,30.00
2018-03-25T14:51:29.391Z,29.33
2018-03-25T14:53:56.334Z,29.50
2018-03-25T14:56:23.540Z,30.10
2018-03-25T14:58:50.809Z,30.90
2018-03-25T15:01:17.843Z,31.30
2018-03-25T15:03:44.588Z,28.60
2018-03-25T15:06:11.525Z,28.17
2018-03-25T15:08:38.379Z,29.67
2018-03-25T15:11:05.522Z,28.07
2018-03-25T15:13:32.606Z,28.60
2018-03-25T15:15:59.401Z,27.53
2018-03-25T15:18:26.236Z,29.23
2018-03-25T15:20:53.667Z,29.70
2018-03-25T15:23:20.552Z,28.50
2018-03-25T15:25:47.348Z,30.00
2018-03-25T15:28:14.260Z,31.13
2018-03-25T15:30:41.194Z,29.53
2018-03-25T15:33:08.127Z,29.30
2018-03-25T15:35:34.893Z,29.77
2018-03-25T15:38:01.770Z,31.17
2018-03-25T15:40:28.606Z,29.90
2018-03-25T15:42:55.502Z,27.37
2018-03-25T15:45:22.248Z,29.60
2018-03-25T15:47:49.195Z,29.40
2018-03-25T15:50:15.964Z,29.83
2018-03-25T15:52:42.876Z,29.93
2018-03-25T15:55:09.701Z,29.30
2018-03-25T15:57:36.678Z,26.43
2018-03-25T16:00:03.923Z,28.37
2018-03-25T16:02:30.886Z,28.07
2018-03-25T16:04:57.702Z,28.03
2018-03-25T16:07:24.473Z,27.80
2018-03-25T16:09:51.506Z,27.23
2018-03-25T16:12:18.370Z,25.90
2018-03-25T16:14:45.601Z,28.17
2018-03-25T16:17:12.411Z,28.80
2018-03-25T16:19:39.415Z,29.03
2018-03-25T16:22:07.040Z,28.67
2018-03-25T16:24:33.963Z,29.50
2018-03-25T16:27:01.368Z,27.77
2018-03-25T16:29:28.550Z,28.30
2018-03-25T16:31:55.891Z,30.07
2018-03-25T16:34:22.836Z,29.30
2018-03-25T16:36:49.841Z,30.47
2018-03-25T16:39:17.070Z,28.77
2018-03-25T16:41:44.145Z,27.60
2018-03-25T16:44:11.088Z,29.40
2018-03-25T16:46:39.184Z,28.77
2018-03-25T16:49:06.167Z,27.07
2018-03-25T16:51:33.065Z,30.17
2018-03-25T16:54:00.113Z,29.53
2018-03-25T16:56:26.905Z,27.90
2018-03-25T16:58:53.714Z,30.00
2018-03-25T17:01:20.504Z,27.80
2018-03-25T17:03:47.310Z,31.00
2018-03-25T17:06:14.071Z,28.40
2018-03-25T17:08:40.897Z,29.03
2018-03-25T17:11:07.922Z,29.17
2018-03-25T17:13:34.680Z,30.97
2018-03-25T17:16:02.038Z,29.37
2018-03-25T17:18:29.145Z,30.27
2018-03-25T17:20:56.117Z,29.13
2018-03-25T17:23:23.169Z,28.50
2018-03-25T17:25:50.471Z,29.23
2018-03-25T17:28:17.386Z,29.43
2018-03-25T17:30:44.295Z,31.40
2018-03-25T17:33:11.215Z,29.30
2018-03-25T17:35:38.193Z,28.17
2018-03-25T17:38:05.009Z,30.87
2018-03-25T17:40:32.092Z,31.77
2018-03-25T17:42:59.347Z,30.03
2018-03-25T17:45:26.148Z,32.00
2018-03-25T17:47:53.154Z,29.30
2018-03-25T17:50:20.385Z,32.03
2018-03-25T17:52:47.364Z,32.30
2018-03-25T17:55:14.230Z,31.57
2018-03-25T17:57:41.206Z,32.53
2018-03-25T18:00:08.032Z,30.80
2018-03-25T18:02:34.836Z,30.83
2018-03-25T18:05:01.800Z,32.10
2018-03-25T18:07:28.780Z,30.50
2018-03-25T18:09:55.733Z,31.67
2018-03-25T18:12:23.022Z,31.30
2018-03-25T18:14:49.787Z,30.20
2018-03-25T18:17:33.461Z,30.83
2018-03-25T18:19:43.276Z,31.60
2018-03-25T18:22:10.017Z,31.80
2018-03-25T18:24:36.767Z,31.23
2018-03-25T18:27:03.529Z,33.50
2018-03-25T18:29:30.261Z,31.33
2018-03-25T18:31:57.001Z,33.23
2018-03-25T18:34:23.766Z,31.60
2018-03-25T18:36:50.491Z,31.50
2018-03-25T18:39:17.222Z,32.80
2018-03-25T18:41:43.966Z,31.80
2018-03-25T18:44:10.709Z,31.53
2018-03-25T18:46:37.468Z,32.57
2018-03-25T18:49:04.199Z,32.17
2018-03-25T18:51:30.933Z,31.43
2018-03-25T18:53:57.778Z,33.37
2018-03-25T18:56:24.526Z,30.27
2018-03-25T18:58:51.265Z,29.93
2018-03-25T19:01:17.996Z,32.93
2018-03-25T19:03:44.742Z,32.37
2018-03-25T19:06:11.486Z,31.90
2018-03-25T19:08:38.236Z,31.77
2018-03-25T19:11:05.820Z,33.90
2018-03-25T19:13:32.613Z,31.33
2018-03-25T19:15:59.342Z,31.57
2018-03-25T19:18:26.105Z,31.83
2018-03-25T19:20:52.860Z,31.20
2018-03-25T19:23:19.686Z,32.50
2018-03-25T19:25:46.448Z,29.70
2018-03-25T19:28:13.214Z,31.63
2018-03-25T19:30:39.946Z,31.10
2018-03-25T19:33:06.705Z,31.00
2018-03-25T19:35:33.624Z,30.10
2018-03-25T19:38:00.417Z,30.67
2018-03-25T19:40:27.173Z,32.07
2018-03-25T19:42:53.957Z,31.70
2018-03-25T19:45:20.757Z,27.70
2018-03-25T19:47:47.606Z,30.73
2018-03-25T19:50:14.350Z,31.37
2018-03-25T19:52:41.107Z,30.40
2018-03-25T19:55:07.933Z,31.50
2018-03-25T19:57:34.667Z,29.97
2018-03-25T20:00:01.413Z,30.27
2018-03-25T20:02:28.160Z,31.97
2018-03-25T20:04:54.906Z,32.83
2018-03-25T20:07:21.654Z,31.63
2018-03-25T20:09:48.399Z,30.67
2018-03-25T20:12:15.147Z,31.03
2018-03-25T20:14:41.914Z,29.17
2018-03-25T20:17:08.675Z,29.60
2018-03-25T20:19:35.542Z,31.47
2018-03-25T20:22:02.318Z,28.13
2018-03-25T20:24:29.055Z,29.43
2018-03-25T20:26:55.800Z,30.20
2018-03-25T20:29:22.557Z,29.50
2018-03-25T20:31:49.338Z,29.87
2018-03-25T20:34:16.072Z,30.37
2018-03-25T20:36:42.833Z,29.87
2018-03-25T20:39:09.574Z,28.47
2018-03-25T20:41:36.347Z,29.27
2018-03-25T20:44:03.257Z,29.70
2018-03-25T20:46:29.997Z,27.17
2018-03-25T20:48:56.710Z,29.27
2018-03-25T20:51:23.426Z,29.70
2018-03-25T20:53:50.152Z,32.10
2018-03-25T20:56:16.892Z,32.60
2018-03-25T20:58:43.615Z,31.47
2018-03-25T21:01:10.333Z,32.00
2018-03-25T21:03:37.053Z,32.60
2018-03-25T21:06:03.782Z,31.23
2018-03-25T21:08:30.521Z,30.27
2018-03-25T21:10:57.247Z,29.23
2018-03-25T21:13:23.976Z,29.13
2018-03-25T21:15:50.701Z,29.70
2018-03-25T21:18:17.436Z,29.40
2018-03-25T21:20:44.161Z,30.77
2018-03-25T21:23:10.935Z,30.20
2018-03-25T21:25:37.680Z,31.60
2018-03-25T21:28:04.406Z,32.50
2018-03-25T21:30:31.142Z,29.60
2018-03-25T21:32:57.898Z,30.90
2018-03-25T21:35:24.653Z,28.80
2018-03-25T21:37:51.379Z,29.03
2018-03-25T21:40:18.116Z,28.73
2018-03-25T21:42:44.870Z,29.00
2018-03-25T21:45:11.685Z,27.70
2018-03-25T21:47:38.526Z,30.07
2018-03-25T21:50:05.307Z,29.10
2018-03-25T21:52:32.035Z,29.70
2018-03-25T21:54:58.748Z,29.87
2018-03-25T21:57:25.482Z,30.60
2018-03-25T21:59:52.227Z,30.53
2018-03-25T22:02:18.959Z,29.30
2018-03-25T22:04:45.694Z,29.07
2018-03-25T22:07:12.414Z,29.27
2018-03-25T22:09:39.150Z,30.00
2018-03-25T22:12:05.885Z,28.80
2018-03-25T22:14:32.618Z,29.50
2018-03-25T22:16:59.342Z,30.80
2018-03-25T22:19:26.060Z,28.03
2018-03-25T22:21:52.777Z,29.67
2018-03-25T22:24:19.510Z,28.90
2018-03-25T22:26:46.229Z,29.00
2018-03-25T22:29:12.978Z,30.40
2018-03-25T22:31:39.745Z,29.13
2018-03-25T22:34:06.465Z,30.33
2018-03-25T22:36:33.187Z,29.70
2018-03-25T22:38:59.935Z,29.80
2018-03-25T22:41:26.658Z,30.93
2018-03-25T22:43:53.382Z,30.03
2018-03-25T22:46:20.125Z,30.17
2018-03-25T22:48:47.386Z,29.77
2018-03-25T22:51:14.137Z,30.60
2018-03-25T22:53:40.858Z,29.20
2018-03-25T22:56:08.735Z,28.07
2018-03-25T22:58:35.449Z,28.43
2018-03-25T23:01:02.186Z,28.57
2018-03-25T23:03:28.926Z,31.40
2018-03-25T23:05:55.666Z,28.23
2018-03-25T23:08:22.392Z,28.67
2018-03-25T23:10:49.178Z,28.40
2018-03-25T23:13:15.966Z,29.40
2018-03-25T23:15:42.686Z,27.93
2018-03-25T23:18:09.414Z,28.50
2018-03-25T23:20:36.130Z,31.37
2018-03-25T23:23:02.857Z,29.03
2018-03-25T23:25:29.603Z,28.93
2018-03-25T23:27:56.324Z,32.87
2018-03-25T23:30:23.056Z,28.87
2018-03-25T23:32:49.789Z,29.30
2018-03-25T23:35:16.518Z,30.63
2018-03-25T23:37:43.252Z,29.50
2018-03-25T23:40:09.975Z,28.00
2018-03-25T23:42:36.703Z,30.67
2018-03-25T23:45:03.462Z,29.53
2018-03-25T23:47:30.188Z,29.53
2018-03-25T23:49:56.913Z,31.77
2018-03-25T23:52:23.641Z,31.27
2018-03-25T23:54:50.373Z,30.80
2018-03-25T23:57:17.099Z,30.30
2018-03-25T23:59:43.835Z,29.57
